FIN46J LGAV-ENGM
Flight info
| Callsign | FIN46J |
|---|---|
| Flight time | 3h 31m |
| Altitude | 36000 |
| Route | KRO2N KRO T162 NEVRA UT162 KOROS DCT PEREN UL863 EVIVI L863 OKANA DCT ESIRI DCT PARAK DCT MAKAL DCT DESEN DCT GOSOT DCT SABAK DCT LUNIP LUNI4M |
| Aircraft | A321/M-SDE3FGHIRWY/LB1 |
Departure
| Time | 2026-05-07 13:58 |
|---|---|
| Airport | Athens Eleftherios Venizelos International Airport (LGAV) |
Arrival
| Time | 2026-05-07 17:29 |
|---|---|
| Airport | Oslo-Gardermoen International Airport (ENGM) |
| Time | Latitude | Longitude | Altitude | Speed | Heading |
|---|---|---|---|---|---|
| 2026-05-07 13:32 | 37.93046 | 23.94277 | 303 ft | 0 kts | 37° |
| 2026-05-07 13:44 | 37.93039 | 23.94271 | 301 ft | 3 kts | 37° |
| 2026-05-07 13:44 | 37.93024 | 23.94257 | 302 ft | 3 kts | 37° |
| 2026-05-07 13:45 | 37.93009 | 23.94242 | 300 ft | 3 kts | 37° |
| 2026-05-07 13:45 | 37.92996 | 23.94226 | 303 ft | 3 kts | 59° |
| 2026-05-07 13:45 | 37.92987 | 23.94205 | 300 ft | 3 kts | 80° |
| 2026-05-07 13:45 | 37.92987 | 23.94182 | 301 ft | 3 kts | 124° |
| 2026-05-07 13:46 | 37.92991 | 23.94175 | 301 ft | 0 kts | 127° |
| 2026-05-07 13:48 | 37.92990 | 23.94176 | 301 ft | 0 kts | 127° |
| 2026-05-07 13:48 | 37.92981 | 23.94192 | 301 ft | 4 kts | 127° |
| 2026-05-07 13:48 | 37.92958 | 23.94229 | 301 ft | 6 kts | 127° |
| 2026-05-07 13:49 | 37.92930 | 23.94277 | 301 ft | 7 kts | 127° |
| 2026-05-07 13:49 | 37.92897 | 23.94330 | 306 ft | 8 kts | 127° |
| 2026-05-07 13:49 | 37.92861 | 23.94389 | 301 ft | 9 kts | 127° |
| 2026-05-07 13:49 | 37.92828 | 23.94457 | 304 ft | 9 kts | 107° |
| 2026-05-07 13:50 | 37.92855 | 23.94527 | 305 ft | 10 kts | 38° |
| 2026-05-07 13:50 | 37.92915 | 23.94584 | 305 ft | 11 kts | 37° |
| 2026-05-07 13:50 | 37.92982 | 23.94647 | 303 ft | 12 kts | 37° |
| 2026-05-07 13:50 | 37.93054 | 23.94716 | 303 ft | 14 kts | 37° |
| 2026-05-07 13:51 | 37.93132 | 23.94791 | 301 ft | 15 kts | 37° |
| 2026-05-07 13:51 | 37.93215 | 23.94869 | 301 ft | 15 kts | 37° |
| 2026-05-07 13:51 | 37.93303 | 23.94952 | 300 ft | 16 kts | 37° |
| 2026-05-07 13:51 | 37.93396 | 23.95041 | 301 ft | 17 kts | 37° |
| 2026-05-07 13:52 | 37.93493 | 23.95133 | 302 ft | 18 kts | 37° |
| 2026-05-07 13:52 | 37.93595 | 23.95230 | 298 ft | 19 kts | 37° |
| 2026-05-07 13:52 | 37.93702 | 23.95330 | 301 ft | 19 kts | 37° |
| 2026-05-07 13:52 | 37.93812 | 23.95435 | 297 ft | 20 kts | 37° |
| 2026-05-07 13:53 | 37.93926 | 23.95544 | 300 ft | 21 kts | 36° |
| 2026-05-07 13:53 | 37.94042 | 23.95653 | 298 ft | 21 kts | 37° |
| 2026-05-07 13:53 | 37.94159 | 23.95764 | 298 ft | 21 kts | 37° |
| 2026-05-07 13:53 | 37.94274 | 23.95874 | 301 ft | 21 kts | 37° |
| 2026-05-07 13:54 | 37.94393 | 23.95985 | 300 ft | 21 kts | 37° |
| 2026-05-07 13:54 | 37.94512 | 23.96098 | 300 ft | 22 kts | 36° |
| 2026-05-07 13:54 | 37.94631 | 23.96212 | 299 ft | 22 kts | 37° |
| 2026-05-07 13:54 | 37.94751 | 23.96326 | 300 ft | 21 kts | 37° |
| 2026-05-07 13:55 | 37.94870 | 23.96439 | 305 ft | 21 kts | 36° |
| 2026-05-07 13:55 | 37.94988 | 23.96552 | 303 ft | 21 kts | 37° |
| 2026-05-07 13:55 | 37.95107 | 23.96662 | 303 ft | 21 kts | 36° |
| 2026-05-07 13:55 | 37.95225 | 23.96774 | 303 ft | 21 kts | 38° |
| 2026-05-07 13:56 | 37.95299 | 23.96862 | 304 ft | 11 kts | 73° |
| 2026-05-07 13:56 | 37.95273 | 23.96939 | 307 ft | 9 kts | 126° |
| 2026-05-07 13:56 | 37.95243 | 23.96992 | 309 ft | 9 kts | 126° |
| 2026-05-07 13:56 | 37.95172 | 23.97003 | 310 ft | 16 kts | 210° |
| 2026-05-07 13:57 | 37.95005 | 23.96847 | 309 ft | 57 kts | 217° |
| 2026-05-07 13:57 | 37.94503 | 23.96370 | 292 ft | 121 kts | 217° |
| 2026-05-07 13:57 | 37.93691 | 23.95599 | 295 ft | 167 kts | 217° |
| 2026-05-07 13:57 | 37.92719 | 23.94729 | 794 ft | 173 kts | 210° |
| 2026-05-07 13:58 | 37.91668 | 23.93991 | 1434 ft | 173 kts | 207° |
| 2026-05-07 13:58 | 37.90559 | 23.93258 | 1774 ft | 188 kts | 207° |
| 2026-05-07 13:58 | 37.89352 | 23.92462 | 1904 ft | 207 kts | 207° |
| 2026-05-07 13:58 | 37.88038 | 23.91589 | 2076 ft | 224 kts | 206° |
| 2026-05-07 13:59 | 37.86598 | 23.90627 | 2345 ft | 242 kts | 207° |
| 2026-05-07 13:59 | 37.84957 | 23.90035 | 2838 ft | 253 kts | 180° |
| 2026-05-07 13:59 | 37.83242 | 23.90562 | 3478 ft | 260 kts | 151° |
| 2026-05-07 13:59 | 37.81908 | 23.92121 | 4184 ft | 267 kts | 123° |
| 2026-05-07 14:00 | 37.81202 | 23.94316 | 4916 ft | 274 kts | 107° |
| 2026-05-07 14:00 | 37.80718 | 23.96666 | 5621 ft | 278 kts | 105° |
| 2026-05-07 14:00 | 37.80262 | 23.99068 | 6275 ft | 283 kts | 99° |
| 2026-05-07 14:00 | 37.80310 | 24.01526 | 6899 ft | 287 kts | 75° |
| 2026-05-07 14:01 | 37.81152 | 24.03798 | 7542 ft | 288 kts | 50° |
| 2026-05-07 14:01 | 37.82663 | 24.05444 | 8142 ft | 289 kts | 28° |
| 2026-05-07 14:01 | 37.84410 | 24.06723 | 8806 ft | 291 kts | 28° |
| 2026-05-07 14:01 | 37.86176 | 24.08006 | 9499 ft | 293 kts | 28° |
| 2026-05-07 14:02 | 37.87947 | 24.09296 | 10185 ft | 295 kts | 28° |
| 2026-05-07 14:02 | 37.89766 | 24.10627 | 10459 ft | 313 kts | 28° |
| 2026-05-07 14:02 | 37.91713 | 24.12059 | 10588 ft | 334 kts | 28° |
| 2026-05-07 14:02 | 37.93776 | 24.13579 | 10711 ft | 354 kts | 28° |
| 2026-05-07 14:03 | 37.95930 | 24.15171 | 10834 ft | 372 kts | 28° |
| 2026-05-07 14:03 | 37.98193 | 24.16848 | 11190 ft | 381 kts | 28° |
| 2026-05-07 14:03 | 38.00488 | 24.18554 | 11753 ft | 384 kts | 28° |
| 2026-05-07 14:03 | 38.02803 | 24.20276 | 12323 ft | 388 kts | 28° |
| 2026-05-07 14:04 | 38.05138 | 24.22013 | 12898 ft | 391 kts | 28° |
| 2026-05-07 14:04 | 38.07494 | 24.23767 | 13480 ft | 394 kts | 27° |
| 2026-05-07 14:04 | 38.09873 | 24.25538 | 14049 ft | 398 kts | 27° |
| 2026-05-07 14:04 | 38.12272 | 24.27319 | 14566 ft | 402 kts | 27° |
| 2026-05-07 14:05 | 38.14699 | 24.29120 | 15047 ft | 406 kts | 27° |
| 2026-05-07 14:05 | 38.17152 | 24.30945 | 15570 ft | 410 kts | 27° |
| 2026-05-07 14:05 | 38.19622 | 24.32785 | 16066 ft | 414 kts | 27° |
| 2026-05-07 14:05 | 38.22085 | 24.34624 | 16541 ft | 419 kts | 27° |
| 2026-05-07 14:06 | 38.24608 | 24.36508 | 17034 ft | 423 kts | 27° |
| 2026-05-07 14:06 | 38.27158 | 24.38411 | 17506 ft | 427 kts | 27° |
| 2026-05-07 14:06 | 38.29731 | 24.40335 | 17991 ft | 431 kts | 27° |
| 2026-05-07 14:06 | 38.32325 | 24.42276 | 18433 ft | 435 kts | 27° |
| 2026-05-07 14:07 | 38.34940 | 24.44234 | 18820 ft | 438 kts | 27° |
| 2026-05-07 14:07 | 38.37575 | 24.46211 | 19228 ft | 440 kts | 27° |
| 2026-05-07 14:07 | 38.40218 | 24.48198 | 19632 ft | 442 kts | 27° |
| 2026-05-07 14:07 | 38.42875 | 24.50197 | 20051 ft | 445 kts | 27° |
| 2026-05-07 14:08 | 38.45549 | 24.52208 | 20442 ft | 447 kts | 27° |
| 2026-05-07 14:08 | 38.48211 | 24.54155 | 20843 ft | 447 kts | 22° |
| 2026-05-07 14:08 | 38.51117 | 24.55450 | 21226 ft | 441 kts | 7° |
| 2026-05-07 14:08 | 38.54146 | 24.55723 | 21585 ft | 435 kts | 352° |
| 2026-05-07 14:09 | 38.57109 | 24.55064 | 21945 ft | 433 kts | 344° |
| 2026-05-07 14:09 | 38.60058 | 24.54226 | 22331 ft | 435 kts | 343° |
| 2026-05-07 14:09 | 38.63015 | 24.53382 | 22704 ft | 437 kts | 344° |
| 2026-05-07 14:09 | 38.65987 | 24.52537 | 23063 ft | 439 kts | 344° |
| 2026-05-07 14:10 | 38.68974 | 24.51694 | 23460 ft | 441 kts | 344° |
| 2026-05-07 14:10 | 38.71936 | 24.50864 | 23780 ft | 443 kts | 344° |
| 2026-05-07 14:10 | 38.74957 | 24.50023 | 24077 ft | 445 kts | 344° |
| 2026-05-07 14:10 | 38.77995 | 24.49181 | 24365 ft | 447 kts | 344° |
| 2026-05-07 14:11 | 38.81042 | 24.48330 | 24658 ft | 449 kts | 344° |
| 2026-05-07 14:11 | 38.84108 | 24.47469 | 24945 ft | 451 kts | 344° |
| 2026-05-07 14:11 | 38.87184 | 24.46605 | 25233 ft | 453 kts | 344° |
| 2026-05-07 14:11 | 38.90271 | 24.45734 | 25519 ft | 455 kts | 344° |
| 2026-05-07 14:12 | 38.93373 | 24.44856 | 25802 ft | 458 kts | 344° |
| 2026-05-07 14:12 | 38.96489 | 24.43975 | 26081 ft | 460 kts | 345° |
| 2026-05-07 14:12 | 38.99615 | 24.43091 | 26365 ft | 462 kts | 345° |
| 2026-05-07 14:12 | 39.02723 | 24.42211 | 26637 ft | 464 kts | 345° |
| 2026-05-07 14:13 | 39.05872 | 24.41322 | 26960 ft | 464 kts | 345° |
| 2026-05-07 14:13 | 39.09024 | 24.40434 | 27364 ft | 463 kts | 345° |
| 2026-05-07 14:13 | 39.12168 | 24.39546 | 27755 ft | 462 kts | 345° |
| 2026-05-07 14:13 | 39.15302 | 24.38655 | 28140 ft | 461 kts | 345° |
| 2026-05-07 14:14 | 39.18442 | 24.37762 | 28482 ft | 462 kts | 345° |
| 2026-05-07 14:14 | 39.21578 | 24.36871 | 28821 ft | 462 kts | 345° |
| 2026-05-07 14:14 | 39.24678 | 24.35990 | 29184 ft | 462 kts | 345° |
| 2026-05-07 14:14 | 39.27811 | 24.35101 | 29562 ft | 461 kts | 345° |
| 2026-05-07 14:15 | 39.30937 | 24.34214 | 29935 ft | 460 kts | 345° |
| 2026-05-07 14:15 | 39.34066 | 24.33320 | 30292 ft | 460 kts | 345° |
| 2026-05-07 14:15 | 39.37185 | 24.32425 | 30614 ft | 459 kts | 345° |
| 2026-05-07 14:15 | 39.40305 | 24.31530 | 30914 ft | 460 kts | 345° |
| 2026-05-07 14:16 | 39.43423 | 24.30635 | 31233 ft | 459 kts | 345° |
| 2026-05-07 14:16 | 39.46542 | 24.29738 | 31557 ft | 458 kts | 345° |
| 2026-05-07 14:16 | 39.49650 | 24.28842 | 31889 ft | 457 kts | 345° |
| 2026-05-07 14:16 | 39.52751 | 24.27948 | 32229 ft | 456 kts | 345° |
| 2026-05-07 14:17 | 39.55806 | 24.27070 | 32553 ft | 456 kts | 345° |
| 2026-05-07 14:17 | 39.58903 | 24.26182 | 32886 ft | 455 kts | 346° |
| 2026-05-07 14:17 | 39.61989 | 24.25302 | 33201 ft | 454 kts | 346° |
| 2026-05-07 14:17 | 39.65069 | 24.24424 | 33510 ft | 453 kts | 346° |
| 2026-05-07 14:18 | 39.68143 | 24.23542 | 33820 ft | 452 kts | 346° |
| 2026-05-07 14:18 | 39.71216 | 24.22655 | 34119 ft | 451 kts | 346° |
| 2026-05-07 14:18 | 39.74278 | 24.21770 | 34383 ft | 450 kts | 345° |
| 2026-05-07 14:18 | 39.77331 | 24.20887 | 34655 ft | 449 kts | 345° |
| 2026-05-07 14:19 | 39.80335 | 24.20017 | 34932 ft | 448 kts | 345° |
| 2026-05-07 14:19 | 39.83377 | 24.19135 | 35178 ft | 447 kts | 345° |
| 2026-05-07 14:19 | 39.86409 | 24.18257 | 35430 ft | 446 kts | 344° |
| 2026-05-07 14:19 | 39.89433 | 24.17380 | 35697 ft | 445 kts | 344° |
| 2026-05-07 14:20 | 39.92446 | 24.16504 | 35970 ft | 443 kts | 344° |
| 2026-05-07 14:20 | 39.94438 | 24.15924 | 36083 ft | 443 kts | 344° |
| 2026-05-07 14:20 | 39.98467 | 24.14750 | 36128 ft | 443 kts | 343° |
| 2026-05-07 14:21 | 40.04442 | 24.13002 | 36127 ft | 444 kts | 343° |
| 2026-05-07 14:21 | 40.10481 | 24.11237 | 36125 ft | 445 kts | 343° |
| 2026-05-07 14:22 | 40.16526 | 24.09476 | 36126 ft | 445 kts | 343° |
| 2026-05-07 14:22 | 40.22572 | 24.07711 | 36130 ft | 445 kts | 343° |
| 2026-05-07 14:23 | 40.28587 | 24.05949 | 36131 ft | 446 kts | 343° |
| 2026-05-07 14:23 | 40.34651 | 24.04164 | 36131 ft | 447 kts | 343° |
| 2026-05-07 14:24 | 40.40717 | 24.02374 | 36136 ft | 447 kts | 343° |
| 2026-05-07 14:24 | 40.46792 | 24.00585 | 36146 ft | 448 kts | 343° |
| 2026-05-07 14:25 | 40.52887 | 23.98793 | 36146 ft | 449 kts | 343° |
| 2026-05-07 14:25 | 40.58927 | 23.96930 | 36142 ft | 447 kts | 339° |
| 2026-05-07 14:26 | 40.64584 | 23.93704 | 36146 ft | 443 kts | 331° |
| 2026-05-07 14:26 | 40.69208 | 23.90790 | 36153 ft | 443 kts | 331° |
| 2026-05-07 14:27 | 40.74780 | 23.87289 | 36142 ft | 444 kts | 331° |
| 2026-05-07 14:27 | 40.80364 | 23.83775 | 36141 ft | 445 kts | 331° |
| 2026-05-07 14:28 | 40.86850 | 23.79680 | 36142 ft | 445 kts | 330° |
| 2026-05-07 14:28 | 40.91495 | 23.76741 | 36157 ft | 445 kts | 330° |
| 2026-05-07 14:29 | 40.97083 | 23.73198 | 36149 ft | 446 kts | 330° |
| 2026-05-07 14:29 | 41.02679 | 23.69635 | 36150 ft | 446 kts | 330° |
| 2026-05-07 14:30 | 41.08279 | 23.66076 | 36145 ft | 447 kts | 330° |
| 2026-05-07 14:30 | 41.13886 | 23.62501 | 36158 ft | 447 kts | 330° |
| 2026-05-07 14:31 | 41.19455 | 23.58943 | 36150 ft | 448 kts | 330° |
| 2026-05-07 14:31 | 41.25065 | 23.55358 | 36146 ft | 448 kts | 330° |
| 2026-05-07 14:32 | 41.30678 | 23.51748 | 36147 ft | 448 kts | 330° |
| 2026-05-07 14:32 | 41.36287 | 23.48139 | 36150 ft | 448 kts | 330° |
| 2026-05-07 14:33 | 41.41865 | 23.44543 | 36164 ft | 448 kts | 330° |
| 2026-05-07 14:33 | 41.47465 | 23.40896 | 36156 ft | 448 kts | 330° |
| 2026-05-07 14:34 | 41.53071 | 23.37230 | 36153 ft | 449 kts | 330° |
| 2026-05-07 14:34 | 41.58676 | 23.33556 | 36157 ft | 449 kts | 330° |
| 2026-05-07 14:35 | 41.64293 | 23.29878 | 36159 ft | 450 kts | 330° |
| 2026-05-07 14:35 | 41.69874 | 23.26224 | 36147 ft | 450 kts | 330° |
| 2026-05-07 14:36 | 41.75496 | 23.22533 | 36159 ft | 450 kts | 330° |
| 2026-05-07 14:36 | 41.81119 | 23.18823 | 36154 ft | 450 kts | 329° |
| 2026-05-07 14:37 | 41.86738 | 23.15111 | 36160 ft | 450 kts | 329° |
| 2026-05-07 14:37 | 41.95138 | 23.09558 | 36148 ft | 451 kts | 329° |
| 2026-05-07 14:38 | 42.00760 | 23.05827 | 36141 ft | 451 kts | 329° |
| 2026-05-07 14:38 | 42.06395 | 23.02078 | 36149 ft | 452 kts | 329° |
| 2026-05-07 14:39 | 42.12033 | 22.98329 | 36143 ft | 452 kts | 329° |
| 2026-05-07 14:39 | 42.17641 | 22.94591 | 36137 ft | 453 kts | 329° |
| 2026-05-07 14:40 | 42.23294 | 22.90822 | 36137 ft | 453 kts | 329° |
| 2026-05-07 14:40 | 42.28936 | 22.87034 | 36150 ft | 453 kts | 329° |
| 2026-05-07 14:41 | 42.34575 | 22.83243 | 36147 ft | 453 kts | 329° |
| 2026-05-07 14:41 | 42.40183 | 22.79477 | 36136 ft | 453 kts | 329° |
| 2026-05-07 14:42 | 42.45823 | 22.75676 | 36128 ft | 453 kts | 329° |
| 2026-05-07 14:42 | 42.51462 | 22.71866 | 36118 ft | 453 kts | 329° |
| 2026-05-07 14:43 | 42.57110 | 22.68055 | 36125 ft | 454 kts | 329° |
| 2026-05-07 14:43 | 42.62732 | 22.64241 | 36126 ft | 455 kts | 329° |
| 2026-05-07 14:44 | 42.68391 | 22.60387 | 36126 ft | 455 kts | 329° |
| 2026-05-07 14:44 | 42.74064 | 22.56532 | 36131 ft | 456 kts | 329° |
| 2026-05-07 14:45 | 42.79733 | 22.52671 | 36133 ft | 456 kts | 329° |
| 2026-05-07 14:45 | 42.85403 | 22.48792 | 36124 ft | 456 kts | 329° |
| 2026-05-07 14:46 | 42.91049 | 22.44948 | 36115 ft | 457 kts | 329° |
| 2026-05-07 14:46 | 42.96749 | 22.41072 | 36116 ft | 458 kts | 329° |
| 2026-05-07 14:47 | 43.02439 | 22.37189 | 36116 ft | 457 kts | 329° |
| 2026-05-07 14:47 | 43.08131 | 22.33309 | 36126 ft | 457 kts | 329° |
| 2026-05-07 14:48 | 43.13787 | 22.29442 | 36112 ft | 458 kts | 329° |
| 2026-05-07 14:48 | 43.19483 | 22.25531 | 36114 ft | 458 kts | 329° |
| 2026-05-07 14:49 | 43.25180 | 22.21615 | 36108 ft | 458 kts | 329° |
| 2026-05-07 14:49 | 43.30877 | 22.17692 | 36105 ft | 458 kts | 329° |
| 2026-05-07 14:50 | 43.36528 | 22.13788 | 36113 ft | 458 kts | 329° |
| 2026-05-07 14:50 | 43.42216 | 22.09847 | 36108 ft | 458 kts | 329° |
| 2026-05-07 14:51 | 43.47910 | 22.05897 | 36102 ft | 459 kts | 329° |
| 2026-05-07 14:51 | 43.53614 | 22.01942 | 36099 ft | 459 kts | 329° |
| 2026-05-07 14:52 | 43.59318 | 21.97977 | 36098 ft | 459 kts | 329° |
| 2026-05-07 14:52 | 43.64985 | 21.94030 | 36091 ft | 459 kts | 329° |
| 2026-05-07 14:53 | 43.70685 | 21.90040 | 36091 ft | 460 kts | 329° |
| 2026-05-07 14:53 | 43.76390 | 21.86040 | 36088 ft | 459 kts | 329° |
| 2026-05-07 14:54 | 43.82090 | 21.82041 | 36085 ft | 459 kts | 329° |
| 2026-05-07 14:54 | 43.87752 | 21.78052 | 36094 ft | 460 kts | 328° |
| 2026-05-07 14:55 | 43.93450 | 21.74021 | 36081 ft | 460 kts | 328° |
| 2026-05-07 14:55 | 43.99165 | 21.69982 | 36076 ft | 461 kts | 328° |
| 2026-05-07 14:56 | 44.04879 | 21.65932 | 36077 ft | 461 kts | 328° |
| 2026-05-07 14:56 | 44.10598 | 21.61879 | 36075 ft | 461 kts | 328° |
| 2026-05-07 14:57 | 44.16269 | 21.57850 | 36086 ft | 461 kts | 328° |
| 2026-05-07 14:57 | 44.21972 | 21.53780 | 36073 ft | 460 kts | 328° |
| 2026-05-07 14:58 | 44.27676 | 21.49704 | 36064 ft | 461 kts | 328° |
| 2026-05-07 14:58 | 44.33377 | 21.45620 | 36063 ft | 461 kts | 328° |
| 2026-05-07 14:59 | 44.39048 | 21.41552 | 36080 ft | 461 kts | 328° |
| 2026-05-07 14:59 | 44.44752 | 21.37437 | 36069 ft | 462 kts | 328° |
| 2026-05-07 15:00 | 44.50460 | 21.33304 | 36059 ft | 462 kts | 328° |
| 2026-05-07 15:00 | 44.56169 | 21.29184 | 36059 ft | 462 kts | 328° |
| 2026-05-07 15:01 | 44.61838 | 21.25084 | 36054 ft | 461 kts | 328° |
| 2026-05-07 15:01 | 44.67532 | 21.20949 | 36047 ft | 461 kts | 328° |
| 2026-05-07 15:02 | 44.73230 | 21.16796 | 36042 ft | 462 kts | 328° |
| 2026-05-07 15:02 | 44.78944 | 21.12628 | 36044 ft | 463 kts | 328° |
| 2026-05-07 15:03 | 44.84624 | 21.08480 | 36041 ft | 463 kts | 328° |
| 2026-05-07 15:03 | 44.90342 | 21.04295 | 36031 ft | 463 kts | 328° |
| 2026-05-07 15:04 | 44.96048 | 21.00096 | 36058 ft | 463 kts | 328° |
| 2026-05-07 15:04 | 45.01755 | 20.95894 | 36047 ft | 462 kts | 328° |
| 2026-05-07 15:05 | 45.07420 | 20.91716 | 36041 ft | 463 kts | 328° |
| 2026-05-07 15:05 | 45.13124 | 20.87491 | 36036 ft | 463 kts | 327° |
| 2026-05-07 15:06 | 45.18832 | 20.83254 | 36044 ft | 463 kts | 328° |
| 2026-05-07 15:06 | 45.24527 | 20.79034 | 36050 ft | 461 kts | 328° |
| 2026-05-07 15:07 | 45.30192 | 20.74823 | 36050 ft | 458 kts | 327° |
| 2026-05-07 15:07 | 45.35788 | 20.70645 | 36045 ft | 457 kts | 327° |
| 2026-05-07 15:08 | 45.41403 | 20.66434 | 36041 ft | 456 kts | 327° |
| 2026-05-07 15:08 | 45.47017 | 20.62226 | 36057 ft | 456 kts | 327° |
| 2026-05-07 15:09 | 45.52617 | 20.58018 | 36054 ft | 455 kts | 327° |
| 2026-05-07 15:09 | 45.58176 | 20.53840 | 36046 ft | 454 kts | 327° |
| 2026-05-07 15:10 | 45.63759 | 20.49635 | 36041 ft | 454 kts | 327° |
| 2026-05-07 15:10 | 45.69338 | 20.45414 | 36040 ft | 453 kts | 327° |
| 2026-05-07 15:11 | 45.74904 | 20.41181 | 36062 ft | 453 kts | 327° |
| 2026-05-07 15:11 | 45.80426 | 20.36986 | 36022 ft | 451 kts | 327° |
| 2026-05-07 15:12 | 45.85975 | 20.32764 | 36026 ft | 452 kts | 327° |
| 2026-05-07 15:12 | 45.91532 | 20.28524 | 36027 ft | 452 kts | 327° |
| 2026-05-07 15:13 | 45.97087 | 20.24275 | 36033 ft | 453 kts | 327° |
| 2026-05-07 15:13 | 46.02640 | 20.20009 | 36053 ft | 453 kts | 327° |
| 2026-05-07 15:14 | 46.08163 | 20.15760 | 36046 ft | 453 kts | 327° |
| 2026-05-07 15:14 | 46.13722 | 20.11490 | 36043 ft | 453 kts | 327° |
| 2026-05-07 15:15 | 46.19454 | 20.07625 | 36041 ft | 457 kts | 333° |
| 2026-05-07 15:15 | 46.25303 | 20.04176 | 36046 ft | 457 kts | 333° |
| 2026-05-07 15:16 | 46.31194 | 20.00702 | 36042 ft | 457 kts | 333° |
| 2026-05-07 15:16 | 46.37086 | 19.97224 | 36044 ft | 458 kts | 333° |
| 2026-05-07 15:17 | 46.42984 | 19.93736 | 36047 ft | 458 kts | 332° |
| 2026-05-07 15:17 | 46.48877 | 19.90231 | 36051 ft | 458 kts | 332° |
| 2026-05-07 15:18 | 46.54736 | 19.86742 | 36049 ft | 458 kts | 332° |
| 2026-05-07 15:18 | 46.60628 | 19.83230 | 36049 ft | 458 kts | 332° |
| 2026-05-07 15:19 | 46.66526 | 19.79708 | 36070 ft | 458 kts | 332° |
| 2026-05-07 15:19 | 46.72417 | 19.76171 | 36063 ft | 458 kts | 332° |
| 2026-05-07 15:20 | 46.78278 | 19.72647 | 36055 ft | 459 kts | 332° |
| 2026-05-07 15:20 | 46.84192 | 19.69083 | 36053 ft | 460 kts | 332° |
| 2026-05-07 15:21 | 46.90101 | 19.65514 | 36052 ft | 459 kts | 332° |
| 2026-05-07 15:21 | 46.95980 | 19.61962 | 36058 ft | 456 kts | 332° |
| 2026-05-07 15:22 | 47.01771 | 19.58461 | 36023 ft | 450 kts | 332° |
| 2026-05-07 15:22 | 47.07555 | 19.54938 | 36016 ft | 450 kts | 332° |
| 2026-05-07 15:23 | 47.13340 | 19.51403 | 36015 ft | 451 kts | 332° |
| 2026-05-07 15:23 | 47.19137 | 19.47851 | 36013 ft | 451 kts | 332° |
| 2026-05-07 15:24 | 47.24899 | 19.44324 | 36017 ft | 452 kts | 332° |
| 2026-05-07 15:24 | 47.30709 | 19.40764 | 36051 ft | 452 kts | 331° |
| 2026-05-07 15:25 | 47.36519 | 19.37192 | 36036 ft | 453 kts | 331° |
| 2026-05-07 15:25 | 47.42334 | 19.33601 | 36029 ft | 454 kts | 331° |
| 2026-05-07 15:26 | 47.48171 | 19.29982 | 36027 ft | 455 kts | 331° |
| 2026-05-07 15:26 | 47.54001 | 19.26370 | 36027 ft | 454 kts | 331° |
| 2026-05-07 15:27 | 47.59770 | 19.22785 | 36028 ft | 452 kts | 331° |
| 2026-05-07 15:27 | 47.65561 | 19.19174 | 36008 ft | 451 kts | 331° |
| 2026-05-07 15:28 | 47.71321 | 19.15577 | 35997 ft | 449 kts | 331° |
| 2026-05-07 15:28 | 47.77087 | 19.11973 | 35997 ft | 450 kts | 331° |
| 2026-05-07 15:29 | 47.82823 | 19.08387 | 36004 ft | 451 kts | 331° |
| 2026-05-07 15:29 | 47.88605 | 19.04752 | 36005 ft | 451 kts | 331° |
| 2026-05-07 15:30 | 47.94389 | 19.01096 | 36008 ft | 451 kts | 331° |
| 2026-05-07 15:30 | 48.00170 | 18.97433 | 36008 ft | 451 kts | 331° |
| 2026-05-07 15:31 | 48.05951 | 18.93773 | 36002 ft | 451 kts | 331° |
| 2026-05-07 15:31 | 48.11694 | 18.90134 | 35999 ft | 452 kts | 331° |
| 2026-05-07 15:32 | 48.17484 | 18.86460 | 36002 ft | 452 kts | 331° |
| 2026-05-07 15:32 | 48.23279 | 18.82761 | 36006 ft | 453 kts | 331° |
| 2026-05-07 15:33 | 48.29032 | 18.79082 | 36006 ft | 453 kts | 331° |
| 2026-05-07 15:33 | 48.34825 | 18.75362 | 36015 ft | 453 kts | 331° |
| 2026-05-07 15:34 | 48.40620 | 18.71633 | 35998 ft | 453 kts | 331° |
| 2026-05-07 15:34 | 48.46414 | 18.67899 | 36011 ft | 454 kts | 331° |
| 2026-05-07 15:35 | 48.52180 | 18.64178 | 35997 ft | 453 kts | 330° |
| 2026-05-07 15:35 | 48.57977 | 18.60419 | 35997 ft | 454 kts | 331° |
| 2026-05-07 15:36 | 48.63779 | 18.56648 | 35999 ft | 454 kts | 331° |
| 2026-05-07 15:36 | 48.69572 | 18.52875 | 36030 ft | 454 kts | 331° |
| 2026-05-07 15:37 | 48.75339 | 18.49110 | 36012 ft | 455 kts | 331° |
| 2026-05-07 15:37 | 48.81150 | 18.45312 | 36000 ft | 455 kts | 331° |
| 2026-05-07 15:38 | 48.86967 | 18.41498 | 35998 ft | 456 kts | 331° |
| 2026-05-07 15:38 | 48.92791 | 18.37665 | 35997 ft | 456 kts | 331° |
| 2026-05-07 15:39 | 48.98574 | 18.33852 | 35993 ft | 457 kts | 330° |
| 2026-05-07 15:39 | 49.04406 | 18.29995 | 36009 ft | 457 kts | 331° |
| 2026-05-07 15:40 | 49.10238 | 18.26125 | 35996 ft | 458 kts | 331° |
| 2026-05-07 15:40 | 49.16081 | 18.22237 | 35990 ft | 458 kts | 331° |
| 2026-05-07 15:41 | 49.21880 | 18.18372 | 35986 ft | 458 kts | 331° |
| 2026-05-07 15:41 | 49.27746 | 18.14525 | 35980 ft | 460 kts | 332° |
| 2026-05-07 15:42 | 49.33687 | 18.10851 | 35974 ft | 461 kts | 333° |
| 2026-05-07 15:42 | 49.39646 | 18.07222 | 35989 ft | 461 kts | 333° |
| 2026-05-07 15:43 | 49.45548 | 18.03568 | 35976 ft | 460 kts | 333° |
| 2026-05-07 15:43 | 49.51477 | 17.99856 | 35976 ft | 460 kts | 333° |
| 2026-05-07 15:44 | 49.57409 | 17.96122 | 35969 ft | 460 kts | 333° |
| 2026-05-07 15:44 | 49.63328 | 17.92390 | 35949 ft | 457 kts | 333° |
| 2026-05-07 15:45 | 49.69150 | 17.88718 | 35946 ft | 454 kts | 333° |
| 2026-05-07 15:45 | 49.75000 | 17.85021 | 35947 ft | 454 kts | 333° |
| 2026-05-07 15:46 | 49.83767 | 17.79459 | 35949 ft | 454 kts | 333° |
| 2026-05-07 15:47 | 49.89603 | 17.75746 | 35949 ft | 454 kts | 333° |
| 2026-05-07 15:47 | 49.95402 | 17.72047 | 35952 ft | 454 kts | 332° |
| 2026-05-07 15:48 | 50.01249 | 17.68309 | 35962 ft | 454 kts | 332° |
| 2026-05-07 15:48 | 50.07089 | 17.64551 | 35958 ft | 454 kts | 332° |
| 2026-05-07 15:49 | 50.12938 | 17.60779 | 35988 ft | 455 kts | 333° |
| 2026-05-07 15:49 | 50.18790 | 17.57012 | 35969 ft | 455 kts | 333° |
| 2026-05-07 15:50 | 50.24610 | 17.53258 | 35965 ft | 455 kts | 332° |
| 2026-05-07 15:50 | 50.30505 | 17.49597 | 35969 ft | 457 kts | 335° |
| 2026-05-07 15:51 | 50.36555 | 17.46456 | 35967 ft | 459 kts | 338° |
| 2026-05-07 15:51 | 50.42647 | 17.43433 | 35970 ft | 459 kts | 338° |
| 2026-05-07 15:52 | 50.48712 | 17.40286 | 35998 ft | 459 kts | 336° |
| 2026-05-07 15:52 | 50.54713 | 17.37060 | 35979 ft | 459 kts | 336° |
| 2026-05-07 15:53 | 50.60766 | 17.33797 | 35973 ft | 460 kts | 336° |
| 2026-05-07 15:53 | 50.66843 | 17.30551 | 35974 ft | 461 kts | 337° |
| 2026-05-07 15:54 | 50.72888 | 17.27321 | 35981 ft | 462 kts | 336° |
| 2026-05-07 15:54 | 50.78969 | 17.24049 | 35990 ft | 462 kts | 336° |
| 2026-05-07 15:55 | 50.85040 | 17.20775 | 36004 ft | 461 kts | 336° |
| 2026-05-07 15:55 | 50.91108 | 17.17499 | 36037 ft | 460 kts | 337° |
| 2026-05-07 15:56 | 50.97161 | 17.14222 | 36025 ft | 460 kts | 337° |
| 2026-05-07 15:56 | 51.03173 | 17.10964 | 36025 ft | 459 kts | 337° |
| 2026-05-07 15:57 | 51.09218 | 17.07671 | 36023 ft | 459 kts | 337° |
| 2026-05-07 15:57 | 51.15257 | 17.04366 | 36030 ft | 458 kts | 337° |
| 2026-05-07 15:58 | 51.21268 | 17.01074 | 36030 ft | 456 kts | 337° |
| 2026-05-07 15:58 | 51.27263 | 16.97771 | 36029 ft | 455 kts | 337° |
| 2026-05-07 15:59 | 51.33205 | 16.94498 | 36058 ft | 454 kts | 337° |
| 2026-05-07 15:59 | 51.39150 | 16.91221 | 36036 ft | 451 kts | 337° |
| 2026-05-07 16:00 | 51.45071 | 16.87928 | 36024 ft | 450 kts | 337° |
| 2026-05-07 16:00 | 51.50986 | 16.84634 | 36026 ft | 450 kts | 337° |
| 2026-05-07 16:01 | 51.56864 | 16.81361 | 36034 ft | 450 kts | 337° |
| 2026-05-07 16:01 | 51.62790 | 16.78067 | 36035 ft | 450 kts | 337° |
| 2026-05-07 16:02 | 51.68705 | 16.74751 | 36035 ft | 450 kts | 337° |
| 2026-05-07 16:02 | 51.74621 | 16.71415 | 36035 ft | 450 kts | 337° |
| 2026-05-07 16:03 | 51.80536 | 16.68091 | 36054 ft | 450 kts | 337° |
| 2026-05-07 16:03 | 51.86416 | 16.64782 | 36047 ft | 450 kts | 337° |
| 2026-05-07 16:04 | 51.92324 | 16.61434 | 36046 ft | 450 kts | 337° |
| 2026-05-07 16:04 | 51.98230 | 16.58072 | 36048 ft | 450 kts | 337° |
| 2026-05-07 16:05 | 52.04129 | 16.54712 | 36048 ft | 449 kts | 337° |
| 2026-05-07 16:05 | 52.09987 | 16.51365 | 36046 ft | 449 kts | 337° |
| 2026-05-07 16:06 | 52.15885 | 16.47985 | 36051 ft | 449 kts | 337° |
| 2026-05-07 16:06 | 52.21773 | 16.44602 | 36078 ft | 449 kts | 337° |
| 2026-05-07 16:07 | 52.27655 | 16.41211 | 36072 ft | 448 kts | 337° |
| 2026-05-07 16:07 | 52.33521 | 16.37824 | 36067 ft | 447 kts | 337° |
| 2026-05-07 16:08 | 52.39347 | 16.34447 | 36066 ft | 447 kts | 337° |
| 2026-05-07 16:08 | 52.45208 | 16.31051 | 36067 ft | 447 kts | 337° |
| 2026-05-07 16:09 | 52.51071 | 16.27636 | 36065 ft | 447 kts | 337° |
| 2026-05-07 16:09 | 52.56888 | 16.24231 | 36064 ft | 447 kts | 337° |
| 2026-05-07 16:10 | 52.62747 | 16.20798 | 36088 ft | 447 kts | 338° |
| 2026-05-07 16:10 | 52.68600 | 16.17370 | 36073 ft | 447 kts | 338° |
| 2026-05-07 16:11 | 52.74450 | 16.13929 | 36070 ft | 446 kts | 338° |
| 2026-05-07 16:11 | 52.80260 | 16.10487 | 36068 ft | 446 kts | 337° |
| 2026-05-07 16:12 | 52.86101 | 16.07021 | 36065 ft | 446 kts | 338° |
| 2026-05-07 16:12 | 52.91951 | 16.03549 | 36062 ft | 446 kts | 337° |
| 2026-05-07 16:13 | 52.97793 | 16.00067 | 36065 ft | 446 kts | 337° |
| 2026-05-07 16:13 | 53.03632 | 15.96579 | 36065 ft | 446 kts | 337° |
| 2026-05-07 16:14 | 53.09431 | 15.93101 | 36089 ft | 445 kts | 338° |
| 2026-05-07 16:14 | 53.15251 | 15.89602 | 36082 ft | 444 kts | 338° |
| 2026-05-07 16:15 | 53.21063 | 15.86099 | 36079 ft | 443 kts | 337° |
| 2026-05-07 16:15 | 53.26862 | 15.82590 | 36076 ft | 443 kts | 337° |
| 2026-05-07 16:16 | 53.32609 | 15.79093 | 36084 ft | 443 kts | 337° |
| 2026-05-07 16:16 | 53.38392 | 15.75577 | 36079 ft | 442 kts | 337° |
| 2026-05-07 16:17 | 53.44177 | 15.72062 | 36082 ft | 442 kts | 337° |
| 2026-05-07 16:17 | 53.49952 | 15.68531 | 36079 ft | 442 kts | 337° |
| 2026-05-07 16:18 | 53.55727 | 15.64991 | 36102 ft | 441 kts | 338° |
| 2026-05-07 16:18 | 53.61439 | 15.61475 | 36103 ft | 440 kts | 337° |
| 2026-05-07 16:19 | 53.67172 | 15.57932 | 36105 ft | 439 kts | 337° |
| 2026-05-07 16:19 | 53.72902 | 15.54385 | 36101 ft | 438 kts | 337° |
| 2026-05-07 16:20 | 53.78619 | 15.50837 | 36107 ft | 438 kts | 337° |
| 2026-05-07 16:20 | 53.84295 | 15.47307 | 36106 ft | 437 kts | 337° |
| 2026-05-07 16:21 | 53.89998 | 15.43738 | 36110 ft | 437 kts | 337° |
| 2026-05-07 16:21 | 53.95704 | 15.40152 | 36110 ft | 437 kts | 337° |
| 2026-05-07 16:22 | 54.01413 | 15.36573 | 36115 ft | 437 kts | 337° |
| 2026-05-07 16:22 | 54.07117 | 15.32998 | 36117 ft | 437 kts | 337° |
| 2026-05-07 16:23 | 54.12778 | 15.29434 | 36123 ft | 437 kts | 337° |
| 2026-05-07 16:23 | 54.18473 | 15.25815 | 36122 ft | 436 kts | 336° |
| 2026-05-07 16:24 | 54.24161 | 15.22200 | 36127 ft | 436 kts | 337° |
| 2026-05-07 16:24 | 54.29856 | 15.18587 | 36126 ft | 436 kts | 337° |
| 2026-05-07 16:25 | 54.35503 | 15.14980 | 36133 ft | 436 kts | 336° |
| 2026-05-07 16:25 | 54.41181 | 15.11332 | 36150 ft | 435 kts | 337° |
| 2026-05-07 16:26 | 54.46851 | 15.07686 | 36142 ft | 435 kts | 337° |
| 2026-05-07 16:26 | 54.52507 | 15.04037 | 36143 ft | 434 kts | 337° |
| 2026-05-07 16:27 | 54.58161 | 15.00385 | 36139 ft | 434 kts | 337° |
| 2026-05-07 16:27 | 54.63764 | 14.96752 | 36151 ft | 433 kts | 337° |
| 2026-05-07 16:28 | 54.69395 | 14.93082 | 36151 ft | 432 kts | 337° |
| 2026-05-07 16:28 | 54.75012 | 14.89412 | 36143 ft | 431 kts | 336° |
| 2026-05-07 16:29 | 54.80608 | 14.85695 | 36147 ft | 430 kts | 333° |
| 2026-05-07 16:29 | 54.85919 | 14.81147 | 36162 ft | 428 kts | 331° |
| 2026-05-07 16:30 | 54.91246 | 14.76536 | 36157 ft | 428 kts | 331° |
| 2026-05-07 16:30 | 54.96567 | 14.71917 | 36162 ft | 427 kts | 331° |
| 2026-05-07 16:31 | 55.01873 | 14.67291 | 36166 ft | 426 kts | 331° |
| 2026-05-07 16:31 | 55.07143 | 14.62692 | 36163 ft | 426 kts | 331° |
| 2026-05-07 16:32 | 55.12438 | 14.58054 | 36160 ft | 426 kts | 331° |
| 2026-05-07 16:32 | 55.17728 | 14.53382 | 36155 ft | 426 kts | 331° |
| 2026-05-07 16:33 | 55.23012 | 14.48714 | 36148 ft | 425 kts | 331° |
| 2026-05-07 16:33 | 55.28297 | 14.44048 | 36157 ft | 425 kts | 332° |
| 2026-05-07 16:34 | 55.33533 | 14.39410 | 36150 ft | 424 kts | 332° |
| 2026-05-07 16:34 | 55.38798 | 14.34731 | 36149 ft | 423 kts | 331° |
| 2026-05-07 16:35 | 55.44037 | 14.30053 | 36154 ft | 421 kts | 331° |
| 2026-05-07 16:35 | 55.49255 | 14.25380 | 36157 ft | 420 kts | 332° |
| 2026-05-07 16:36 | 55.54409 | 14.20740 | 36153 ft | 418 kts | 331° |
| 2026-05-07 16:36 | 55.59574 | 14.16070 | 36142 ft | 417 kts | 331° |
| 2026-05-07 16:37 | 55.64731 | 14.11410 | 36131 ft | 416 kts | 331° |
| 2026-05-07 16:37 | 55.69870 | 14.06761 | 36131 ft | 414 kts | 331° |
| 2026-05-07 16:38 | 55.74991 | 14.02117 | 36139 ft | 412 kts | 332° |
| 2026-05-07 16:38 | 55.80056 | 13.97508 | 36137 ft | 411 kts | 332° |
| 2026-05-07 16:39 | 55.85144 | 13.92863 | 36127 ft | 410 kts | 331° |
| 2026-05-07 16:39 | 55.90208 | 13.88209 | 36121 ft | 409 kts | 331° |
| 2026-05-07 16:40 | 55.95259 | 13.83556 | 36117 ft | 409 kts | 332° |
| 2026-05-07 16:40 | 56.00279 | 13.78932 | 36117 ft | 408 kts | 332° |
| 2026-05-07 16:41 | 56.05324 | 13.74270 | 36140 ft | 408 kts | 331° |
| 2026-05-07 16:41 | 56.10420 | 13.69538 | 36109 ft | 419 kts | 331° |
| 2026-05-07 16:42 | 56.15666 | 13.64649 | 36110 ft | 430 kts | 331° |
| 2026-05-07 16:42 | 56.20972 | 13.59704 | 36109 ft | 433 kts | 331° |
| 2026-05-07 16:43 | 56.26321 | 13.54705 | 36114 ft | 434 kts | 331° |
| 2026-05-07 16:43 | 56.31678 | 13.49672 | 36112 ft | 435 kts | 331° |
| 2026-05-07 16:44 | 56.37029 | 13.44619 | 36118 ft | 434 kts | 331° |
| 2026-05-07 16:44 | 56.42384 | 13.39548 | 36134 ft | 434 kts | 331° |
| 2026-05-07 16:45 | 56.47700 | 13.34510 | 36140 ft | 435 kts | 331° |
| 2026-05-07 16:45 | 56.53048 | 13.29419 | 36137 ft | 434 kts | 331° |
| 2026-05-07 16:46 | 56.58392 | 13.24327 | 36137 ft | 434 kts | 331° |
| 2026-05-07 16:46 | 56.63727 | 13.19219 | 36135 ft | 434 kts | 331° |
| 2026-05-07 16:47 | 56.69024 | 13.14130 | 36146 ft | 434 kts | 330° |
| 2026-05-07 16:47 | 56.74357 | 13.08991 | 36142 ft | 433 kts | 330° |
| 2026-05-07 16:48 | 56.79678 | 13.03845 | 36140 ft | 433 kts | 330° |
| 2026-05-07 16:49 | 56.89666 | 12.94146 | 36147 ft | 432 kts | 330° |
| 2026-05-07 16:49 | 56.94973 | 12.88964 | 36143 ft | 432 kts | 330° |
| 2026-05-07 16:50 | 57.00947 | 12.83106 | 36159 ft | 431 kts | 330° |
| 2026-05-07 16:50 | 57.06235 | 12.77907 | 36148 ft | 430 kts | 330° |
| 2026-05-07 16:51 | 57.11508 | 12.72717 | 36141 ft | 430 kts | 330° |
| 2026-05-07 16:51 | 57.16734 | 12.67545 | 36139 ft | 429 kts | 330° |
| 2026-05-07 16:52 | 57.21980 | 12.62323 | 36145 ft | 428 kts | 330° |
| 2026-05-07 16:52 | 57.27228 | 12.57099 | 36149 ft | 428 kts | 329° |
| 2026-05-07 16:53 | 57.32464 | 12.51876 | 36152 ft | 427 kts | 329° |
| 2026-05-07 16:53 | 57.37654 | 12.46672 | 36146 ft | 426 kts | 329° |
| 2026-05-07 16:54 | 57.42863 | 12.41438 | 36144 ft | 426 kts | 329° |
| 2026-05-07 16:54 | 57.48069 | 12.36189 | 36142 ft | 426 kts | 329° |
| 2026-05-07 16:55 | 57.53274 | 12.30927 | 36147 ft | 426 kts | 329° |
| 2026-05-07 16:55 | 57.58439 | 12.25684 | 36146 ft | 426 kts | 329° |
| 2026-05-07 16:56 | 57.63636 | 12.20391 | 36159 ft | 426 kts | 328° |
| 2026-05-07 16:56 | 57.71423 | 12.12433 | 36148 ft | 425 kts | 328° |
| 2026-05-07 16:57 | 57.75727 | 12.08011 | 36163 ft | 424 kts | 328° |
| 2026-05-07 16:57 | 57.81735 | 12.01807 | 36167 ft | 424 kts | 328° |
| 2026-05-07 16:58 | 57.86903 | 11.96462 | 36157 ft | 424 kts | 328° |
| 2026-05-07 16:58 | 57.92071 | 11.91103 | 36183 ft | 424 kts | 328° |
| 2026-05-07 16:59 | 57.96362 | 11.86643 | 36161 ft | 423 kts | 328° |
| 2026-05-07 16:59 | 58.02344 | 11.80403 | 36159 ft | 423 kts | 328° |
| 2026-05-07 17:00 | 58.07480 | 11.75016 | 36154 ft | 422 kts | 328° |
| 2026-05-07 17:00 | 58.11749 | 11.70520 | 36154 ft | 422 kts | 328° |
| 2026-05-07 17:01 | 58.16939 | 11.65290 | 36146 ft | 425 kts | 335° |
| 2026-05-07 17:01 | 58.23688 | 11.62389 | 36152 ft | 430 kts | 347° |
| 2026-05-07 17:02 | 58.28601 | 11.60835 | 36145 ft | 430 kts | 347° |
| 2026-05-07 17:02 | 58.34506 | 11.58948 | 36146 ft | 430 kts | 347° |
| 2026-05-07 17:03 | 58.40412 | 11.57058 | 36145 ft | 431 kts | 346° |
| 2026-05-07 17:03 | 58.46325 | 11.55158 | 36146 ft | 431 kts | 346° |
| 2026-05-07 17:04 | 58.52237 | 11.53264 | 36149 ft | 433 kts | 346° |
| 2026-05-07 17:04 | 58.55215 | 11.52308 | 35881 ft | 433 kts | 346° |
| 2026-05-07 17:04 | 58.58181 | 11.51352 | 35628 ft | 432 kts | 346° |
| 2026-05-07 17:05 | 58.61098 | 11.50404 | 35386 ft | 430 kts | 346° |
| 2026-05-07 17:05 | 58.64046 | 11.49443 | 35141 ft | 429 kts | 346° |
| 2026-05-07 17:05 | 58.66985 | 11.48486 | 34897 ft | 428 kts | 346° |
| 2026-05-07 17:05 | 58.69921 | 11.47533 | 34650 ft | 427 kts | 346° |
| 2026-05-07 17:06 | 58.72843 | 11.46583 | 34407 ft | 425 kts | 346° |
| 2026-05-07 17:06 | 58.75757 | 11.45637 | 34113 ft | 424 kts | 346° |
| 2026-05-07 17:06 | 58.78680 | 11.44678 | 33273 ft | 428 kts | 346° |
| 2026-05-07 17:06 | 58.81621 | 11.43706 | 32547 ft | 429 kts | 345° |
| 2026-05-07 17:07 | 58.84525 | 11.42741 | 31939 ft | 428 kts | 345° |
| 2026-05-07 17:07 | 58.87440 | 11.41779 | 31470 ft | 423 kts | 345° |
| 2026-05-07 17:07 | 58.90330 | 11.40833 | 30949 ft | 420 kts | 345° |
| 2026-05-07 17:07 | 58.93197 | 11.39899 | 30446 ft | 416 kts | 345° |
| 2026-05-07 17:08 | 58.96045 | 11.38965 | 29902 ft | 413 kts | 345° |
| 2026-05-07 17:08 | 58.98857 | 11.38034 | 29385 ft | 407 kts | 345° |
| 2026-05-07 17:08 | 59.01632 | 11.37116 | 28894 ft | 402 kts | 345° |
| 2026-05-07 17:08 | 59.04376 | 11.36207 | 28402 ft | 397 kts | 345° |
| 2026-05-07 17:09 | 59.07085 | 11.35302 | 27915 ft | 393 kts | 345° |
| 2026-05-07 17:09 | 59.09769 | 11.34405 | 27438 ft | 389 kts | 345° |
| 2026-05-07 17:09 | 59.12409 | 11.33527 | 27194 ft | 379 kts | 344° |
| 2026-05-07 17:09 | 59.14937 | 11.32691 | 27056 ft | 367 kts | 344° |
| 2026-05-07 17:10 | 59.17456 | 11.32209 | 26732 ft | 365 kts | 354° |
| 2026-05-07 17:10 | 59.20004 | 11.32698 | 26236 ft | 373 kts | 6° |
| 2026-05-07 17:10 | 59.22519 | 11.34132 | 25729 ft | 378 kts | 11° |
| 2026-05-07 17:10 | 59.25023 | 11.35719 | 25238 ft | 379 kts | 11° |
| 2026-05-07 17:11 | 59.27535 | 11.37306 | 24748 ft | 379 kts | 11° |
| 2026-05-07 17:11 | 59.30078 | 11.38382 | 24291 ft | 371 kts | 356° |
| 2026-05-07 17:11 | 59.32691 | 11.38470 | 23862 ft | 380 kts | 354° |
| 2026-05-07 17:11 | 59.35347 | 11.38510 | 23386 ft | 382 kts | 354° |
| 2026-05-07 17:12 | 59.37971 | 11.38552 | 22889 ft | 381 kts | 355° |
| 2026-05-07 17:12 | 59.40614 | 11.38600 | 22399 ft | 379 kts | 354° |
| 2026-05-07 17:12 | 59.43248 | 11.38648 | 21860 ft | 378 kts | 354° |
| 2026-05-07 17:12 | 59.45872 | 11.38691 | 21318 ft | 376 kts | 355° |
| 2026-05-07 17:13 | 59.48489 | 11.38730 | 20799 ft | 375 kts | 355° |
| 2026-05-07 17:13 | 59.51089 | 11.38772 | 20289 ft | 373 kts | 355° |
| 2026-05-07 17:13 | 59.53677 | 11.38816 | 19786 ft | 371 kts | 355° |
| 2026-05-07 17:13 | 59.56255 | 11.38860 | 19300 ft | 369 kts | 355° |
| 2026-05-07 17:14 | 59.58808 | 11.38906 | 18859 ft | 365 kts | 355° |
| 2026-05-07 17:14 | 59.61334 | 11.38953 | 18427 ft | 361 kts | 356° |
| 2026-05-07 17:14 | 59.63801 | 11.39000 | 17935 ft | 358 kts | 356° |
| 2026-05-07 17:14 | 59.66278 | 11.39042 | 17445 ft | 355 kts | 356° |
| 2026-05-07 17:15 | 59.68736 | 11.39081 | 16984 ft | 352 kts | 355° |
| 2026-05-07 17:15 | 59.71173 | 11.39118 | 16553 ft | 347 kts | 356° |
| 2026-05-07 17:15 | 59.73567 | 11.39159 | 16158 ft | 341 kts | 356° |
| 2026-05-07 17:15 | 59.75922 | 11.39198 | 15770 ft | 336 kts | 356° |
| 2026-05-07 17:16 | 59.78243 | 11.39235 | 15383 ft | 332 kts | 356° |
| 2026-05-07 17:16 | 59.80544 | 11.39272 | 15076 ft | 329 kts | 356° |
| 2026-05-07 17:16 | 59.82799 | 11.39306 | 14788 ft | 328 kts | 356° |
| 2026-05-07 17:16 | 59.85077 | 11.39339 | 14483 ft | 327 kts | 356° |
| 2026-05-07 17:17 | 59.87351 | 11.39373 | 14187 ft | 326 kts | 356° |
| 2026-05-07 17:17 | 59.89612 | 11.39407 | 13890 ft | 324 kts | 356° |
| 2026-05-07 17:17 | 59.91864 | 11.39444 | 13563 ft | 323 kts | 357° |
| 2026-05-07 17:17 | 59.94104 | 11.39477 | 13182 ft | 321 kts | 357° |
| 2026-05-07 17:18 | 59.96332 | 11.39508 | 12741 ft | 319 kts | 357° |
| 2026-05-07 17:18 | 59.98546 | 11.39541 | 12331 ft | 317 kts | 357° |
| 2026-05-07 17:18 | 60.00744 | 11.39580 | 11910 ft | 315 kts | 358° |
| 2026-05-07 17:18 | 60.02930 | 11.39616 | 11500 ft | 312 kts | 358° |
| 2026-05-07 17:19 | 60.05092 | 11.39650 | 11109 ft | 309 kts | 358° |
| 2026-05-07 17:19 | 60.07202 | 11.39686 | 10731 ft | 306 kts | 358° |
| 2026-05-07 17:19 | 60.09319 | 11.39724 | 10367 ft | 303 kts | 358° |
| 2026-05-07 17:19 | 60.11413 | 11.39763 | 10020 ft | 299 kts | 358° |
| 2026-05-07 17:20 | 60.13481 | 11.39802 | 9643 ft | 296 kts | 358° |
| 2026-05-07 17:20 | 60.15528 | 11.39837 | 9272 ft | 292 kts | 358° |
| 2026-05-07 17:20 | 60.17552 | 11.39869 | 8928 ft | 289 kts | 358° |
| 2026-05-07 17:20 | 60.19550 | 11.39903 | 8576 ft | 286 kts | 359° |
| 2026-05-07 17:21 | 60.21527 | 11.39934 | 8229 ft | 283 kts | 359° |
| 2026-05-07 17:21 | 60.23485 | 11.39965 | 7892 ft | 280 kts | 359° |
| 2026-05-07 17:21 | 60.25378 | 11.39996 | 7549 ft | 271 kts | 359° |
| 2026-05-07 17:21 | 60.27221 | 11.40032 | 7290 ft | 259 kts | 359° |
| 2026-05-07 17:22 | 60.28988 | 11.40063 | 7037 ft | 249 kts | 359° |
| 2026-05-07 17:22 | 60.30694 | 11.40093 | 6787 ft | 244 kts | 360° |
| 2026-05-07 17:22 | 60.32382 | 11.40118 | 6535 ft | 242 kts | 360° |
| 2026-05-07 17:22 | 60.34060 | 11.40144 | 6266 ft | 241 kts | 0° |
| 2026-05-07 17:23 | 60.35735 | 11.40173 | 6013 ft | 240 kts | 360° |
| 2026-05-07 17:23 | 60.37408 | 11.40200 | 5744 ft | 239 kts | 0° |
| 2026-05-07 17:23 | 60.38994 | 11.39760 | 5509 ft | 230 kts | 338° |
| 2026-05-07 17:23 | 60.40287 | 11.37999 | 5255 ft | 222 kts | 311° |
| 2026-05-07 17:24 | 60.41082 | 11.35422 | 5121 ft | 213 kts | 291° |
| 2026-05-07 17:24 | 60.41423 | 11.32531 | 5099 ft | 211 kts | 274° |
| 2026-05-07 17:24 | 60.41328 | 11.29608 | 4761 ft | 209 kts | 256° |
| 2026-05-07 17:24 | 60.40794 | 11.26893 | 4393 ft | 208 kts | 238° |
| 2026-05-07 17:25 | 60.39877 | 11.24658 | 4051 ft | 207 kts | 220° |
| 2026-05-07 17:25 | 60.38671 | 11.23125 | 3779 ft | 202 kts | 202° |
| 2026-05-07 17:25 | 60.37350 | 11.22274 | 3544 ft | 197 kts | 196° |
| 2026-05-07 17:25 | 60.36036 | 11.21507 | 3241 ft | 196 kts | 196° |
| 2026-05-07 17:26 | 60.34730 | 11.20743 | 3028 ft | 195 kts | 196° |
| 2026-05-07 17:26 | 60.33436 | 11.19988 | 3005 ft | 197 kts | 196° |
| 2026-05-07 17:26 | 60.32123 | 11.19222 | 3030 ft | 194 kts | 196° |
| 2026-05-07 17:26 | 60.30846 | 11.18478 | 3019 ft | 189 kts | 196° |
| 2026-05-07 17:27 | 60.29596 | 11.17750 | 2981 ft | 186 kts | 196° |
| 2026-05-07 17:27 | 60.28347 | 11.17023 | 2544 ft | 188 kts | 196° |
| 2026-05-07 17:27 | 60.27122 | 11.16311 | 2202 ft | 178 kts | 196° |
| 2026-05-07 17:27 | 60.25990 | 11.15653 | 1956 ft | 161 kts | 195° |
| 2026-05-07 17:28 | 60.24940 | 11.15043 | 1741 ft | 152 kts | 195° |
| 2026-05-07 17:28 | 60.23966 | 11.14478 | 1520 ft | 145 kts | 195° |
| 2026-05-07 17:28 | 60.23005 | 11.13921 | 1318 ft | 143 kts | 195° |
| 2026-05-07 17:28 | 60.22045 | 11.13372 | 1122 ft | 143 kts | 195° |
| 2026-05-07 17:29 | 60.21086 | 11.12815 | 925 ft | 144 kts | 196° |
| 2026-05-07 17:29 | 60.20126 | 11.12253 | 741 ft | 144 kts | 196° |
| 2026-05-07 17:29 | 60.19233 | 11.11737 | 683 ft | 114 kts | 195° |
| 2026-05-07 17:29 | 60.18651 | 11.11400 | 681 ft | 46 kts | 195° |
| 2026-05-07 17:30 | 60.18467 | 11.11198 | 682 ft | 15 kts | 225° |
| 2026-05-07 17:30 | 60.18439 | 11.11053 | 682 ft | 12 kts | 273° |
| 2026-05-07 17:30 | 60.18454 | 11.10924 | 681 ft | 8 kts | 286° |
| 2026-05-07 17:30 | 60.18469 | 11.10822 | 680 ft | 7 kts | 290° |
| 2026-05-07 17:31 | 60.18505 | 11.10765 | 682 ft | 7 kts | 349° |
| 2026-05-07 17:31 | 60.18554 | 11.10780 | 682 ft | 8 kts | 15° |
| 2026-05-07 17:31 | 60.18613 | 11.10815 | 682 ft | 10 kts | 16° |
| 2026-05-07 17:31 | 60.18688 | 11.10859 | 683 ft | 13 kts | 16° |
| 2026-05-07 17:32 | 60.18784 | 11.10914 | 683 ft | 16 kts | 16° |
| 2026-05-07 17:32 | 60.18901 | 11.10982 | 683 ft | 19 kts | 16° |
| 2026-05-07 17:32 | 60.19033 | 11.11057 | 683 ft | 20 kts | 16° |
| 2026-05-07 17:32 | 60.19172 | 11.11138 | 685 ft | 21 kts | 16° |
| 2026-05-07 17:33 | 60.19315 | 11.11221 | 685 ft | 22 kts | 16° |
| 2026-05-07 17:33 | 60.19406 | 11.11249 | 682 ft | 10 kts | 332° |
| 2026-05-07 17:33 | 60.19437 | 11.11104 | 681 ft | 12 kts | 285° |
| 2026-05-07 17:33 | 60.19462 | 11.10927 | 683 ft | 14 kts | 286° |
| 2026-05-07 17:34 | 60.19491 | 11.10728 | 683 ft | 16 kts | 286° |
| 2026-05-07 17:34 | 60.19521 | 11.10514 | 683 ft | 12 kts | 285° |
| 2026-05-07 17:34 | 60.19535 | 11.10403 | 684 ft | 7 kts | 277° |
| 2026-05-07 17:34 | 60.19525 | 11.10316 | 685 ft | 7 kts | 243° |
| 2026-05-07 17:35 | 60.19500 | 11.10227 | 681 ft | 8 kts | 237° |
| 2026-05-07 17:35 | 60.19483 | 11.10183 | 683 ft | 1 kts | 230° |
| 2026-05-07 17:35 | 60.19475 | 11.10162 | 681 ft | 1 kts | 230° |
| 2026-05-07 17:35 | 60.19473 | 11.10159 | 681 ft | 0 kts | 230° |